Time;durP1;ratioP1;P1;durP2;ratioP2;P2;SDS_P1;SDS_P2;PMS_P1;PMS_P2;Temp;Humidity;BMP_temperature;BMP_pressure;BME280_temperature;BME280_humidity;BME280_pressure;Samples;Min_cycle;Max_cycle;Signal;HPM_P1;HPM_P2
2022/03/23 00:00:19;;;;;;;2.70;1.88;;;;;;;;;;5049678;28;20061;-77
2022/03/23 00:02:50;;;;;;;1.10;1.05;;;;;;;;;;5050117;28;20025;-79
2022/03/23 00:05:28;;;;;;;7.47;2.50;;;;;;;;;;5047534;28;20025;-80
2022/03/23 00:07:56;;;;;;;1.70;1.60;;;;;;;;;;5047819;28;20541;-78
2022/03/23 00:10:25;;;;;;;2.15;1.67;;;;;;;;;;5044620;28;20071;-81
2022/03/23 00:12:57;;;;;;;1.55;1.45;;;;;;;;;;5044389;28;20029;-80
2022/03/23 00:15:22;;;;;;;2.95;2.67;;;;;;;;;;5050970;28;20029;-80
2022/03/23 00:17:50;;;;;;;1.98;1.45;;;;;;;;;;5051122;28;20422;-79
2022/03/23 00:20:18;;;;;;;2.13;1.55;;;;;;;;;;5055897;28;20533;-80
2022/03/23 00:22:43;;;;;;;2.15;1.95;;;;;;;;;;5039178;28;20112;-79
2022/03/23 00:25:09;;;;;;;2.70;2.17;;;;;;;;;;5057002;28;20419;-77
2022/03/23 00:27:37;;;;;;;1.13;1.08;;;;;;;;;;5056039;28;20513;-78
2022/03/23 00:30:08;;;;;;;1.25;1.17;;;;;;;;;;5054195;28;20033;-79
2022/03/23 00:32:36;;;;;;;1.60;1.50;;;;;;;;;;5057281;28;20079;-78
2022/03/23 00:35:05;;;;;;;6.28;1.48;;;;;;;;;;5056203;28;20025;-79
2022/03/23 00:37:30;;;;;;;1.15;1.10;;;;;;;;;;5057227;28;20040;-78
2022/03/23 00:39:55;;;;;;;0.57;0.57;;;;;;;;;;5052556;28;20075;-78
2022/03/23 00:42:21;;;;;;;1.80;1.60;;;;;;;;;;5057126;28;20104;-77
2022/03/23 00:44:51;;;;;;;5.00;1.88;;;;;;;;;;5056150;28;20025;-79
2022/03/23 00:47:17;;;;;;;4.75;1.00;;;;;;;;;;5039249;28;20029;-80
2022/03/23 00:49:45;;;;;;;1.92;1.15;;;;;;;;;;5056875;28;20021;-78
2022/03/23 00:52:10;;;;;;;1.65;1.55;;;;;;;;;;5056878;28;20047;-76
2022/03/23 00:54:36;;;;;;;1.23;1.13;;;;;;;;;;5056684;28;20458;-79
2022/03/23 00:57:06;;;;;;;2.55;1.85;;;;;;;;;;5056004;28;20037;-79
2022/03/23 00:59:36;;;;;;;0.40;0.40;;;;;;;;;;5056793;28;20021;-79
2022/03/23 01:02:02;;;;;;;2.60;1.45;;;;;;;;;;5063228;28;20024;-77
2022/03/23 01:04:30;;;;;;;2.58;2.38;;;;;;;;;;5056677;28;20112;-78
2022/03/23 01:06:56;;;;;;;0.85;0.77;;;;;;;;;;5056832;28;20072;-77
2022/03/23 01:09:22;;;;;;;0.95;0.95;;;;;;;;;;5055900;28;20531;-78
2022/03/23 01:11:51;;;;;;;3.08;2.83;;;;;;;;;;5056657;28;20442;-78
2022/03/23 01:14:18;;;;;;;1.75;1.17;;;;;;;;;;5056611;28;20116;-78
2022/03/23 01:16:43;;;;;;;1.33;1.23;;;;;;;;;;5039089;28;20029;-78
2022/03/23 01:19:09;;;;;;;2.88;1.95;;;;;;;;;;5056361;28;20044;-78
2022/03/23 01:21:35;;;;;;;1.85;1.73;;;;;;;;;;5039425;28;20071;-78
2022/03/23 01:24:01;;;;;;;3.58;2.92;;;;;;;;;;5056531;28;20017;-78
2022/03/23 01:26:28;;;;;;;0.95;0.95;;;;;;;;;;5056579;28;20027;-78
2022/03/23 01:28:54;;;;;;;3.47;2.63;;;;;;;;;;5059032;28;20025;-78
2022/03/23 01:31:24;;;;;;;2.03;1.63;;;;;;;;;;5060613;28;20031;-79
2022/03/23 01:33:51;;;;;;;1.15;1.05;;;;;;;;;;5056216;28;20063;-78
2022/03/23 01:36:19;;;;;;;0.82;0.82;;;;;;;;;;5055665;28;20469;-78
2022/03/23 01:38:47;;;;;;;0.40;0.40;;;;;;;;;;5056170;28;20029;-78
2022/03/23 01:41:13;;;;;;;2.50;1.92;;;;;;;;;;5055653;28;20457;-78
2022/03/23 01:43:38;;;;;;;1.10;0.93;;;;;;;;;;5055994;28;20079;-78
2022/03/23 01:46:04;;;;;;;0.90;0.90;;;;;;;;;;5057234;28;20346;-79
2022/03/23 01:48:29;;;;;;;1.67;1.58;;;;;;;;;;5065031;28;20020;-78
2022/03/23 01:50:57;;;;;;;3.38;3.08;;;;;;;;;;5055825;28;20025;-78
2022/03/23 01:53:25;;;;;;;4.20;3.10;;;;;;;;;;5048975;28;20032;-78
2022/03/23 01:55:50;;;;;;;3.40;2.33;;;;;;;;;;5055715;28;20119;-77
2022/03/23 01:58:21;;;;;;;2.78;2.58;;;;;;;;;;5054699;28;20112;-79
2022/03/23 02:00:46;;;;;;;1.17;1.17;;;;;;;;;;5055743;28;20029;-78
2022/03/23 02:03:16;;;;;;;1.33;1.02;;;;;;;;;;5049221;28;20039;-78
2022/03/23 02:05:42;;;;;;;1.10;1.00;;;;;;;;;;5054594;28;20049;-78
2022/03/23 02:08:10;;;;;;;3.53;1.90;;;;;;;;;;5053933;28;20076;-78
2022/03/23 02:10:38;;;;;;;4.35;2.22;;;;;;;;;;5049366;28;20017;-78
2022/03/23 02:13:04;;;;;;;1.88;0.88;;;;;;;;;;5049074;28;20057;-78
2022/03/23 02:15:29;;;;;;;1.65;1.05;;;;;;;;;;5055517;28;20052;-78
2022/03/23 02:17:57;;;;;;;0.80;0.80;;;;;;;;;;5054535;28;20521;-78
2022/03/23 02:20:25;;;;;;;4.38;3.42;;;;;;;;;;5055375;28;20081;-77
2022/03/23 02:22:53;;;;;;;2.63;2.42;;;;;;;;;;5054929;28;20454;-78
2022/03/23 02:25:25;;;;;;;1.90;1.70;;;;;;;;;;5053564;28;20033;-78
2022/03/23 02:27:54;;;;;;;3.90;1.40;;;;;;;;;;5048450;28;20454;-78
2022/03/23 02:30:21;;;;;;;5.47;2.00;;;;;;;;;;5054425;28;20111;-78
2022/03/23 02:32:49;;;;;;;0.93;0.88;;;;;;;;;;5061253;28;20016;-79
2022/03/23 02:35:17;;;;;;;2.55;1.88;;;;;;;;;;5044916;28;20033;-78
2022/03/23 02:37:46;;;;;;;1.65;1.50;;;;;;;;;;5051421;28;20072;-77
2022/03/23 02:40:14;;;;;;;3.33;2.83;;;;;;;;;;5054077;28;20442;-79
2022/03/23 02:42:45;;;;;;;1.95;1.08;;;;;;;;;;5056527;28;20056;-78
2022/03/23 02:45:10;;;;;;;1.85;1.60;;;;;;;;;;5054841;28;20040;-78
2022/03/23 02:47:36;;;;;;;2.70;1.08;;;;;;;;;;5054491;28;20037;-78
2022/03/23 02:50:01;;;;;;;1.90;1.80;;;;;;;;;;5054703;28;20020;-78
2022/03/23 02:52:31;;;;;;;1.98;0.93;;;;;;;;;;5053347;28;20082;-78
2022/03/23 03:03:37;;;;;;;2.33;1.83;;;;;;;;;;5054275;28;20075;-78
2022/03/23 03:06:04;;;;;;;14.90;1.85;;;;;;;;;;5054264;28;20022;-78
2022/03/23 03:08:48;;;;;;;0.65;0.65;;;;;;;;;;5054425;28;20100;-79
2022/03/23 03:11:15;;;;;;;1.27;1.17;;;;;;;;;;5054143;28;20032;-79
2022/03/23 03:13:41;;;;;;;4.18;2.45;;;;;;;;;;5054411;28;20017;-79
2022/03/23 03:16:06;;;;;;;2.50;1.83;;;;;;;;;;5054256;28;20094;-78
2022/03/23 03:18:33;;;;;;;1.70;1.60;;;;;;;;;;5054140;28;20036;-77
2022/03/23 03:21:09;;;;;;;1.80;1.17;;;;;;;;;;5053218;28;20170;-78
2022/03/23 03:23:37;;;;;;;1.13;0.77;;;;;;;;;;5047504;28;20052;-81
2022/03/23 03:26:05;;;;;;;3.60;0.90;;;;;;;;;;5052465;28;20389;-81
2022/03/23 03:28:33;;;;;;;1.02;0.93;;;;;;;;;;5053923;28;20021;-79
2022/03/23 03:34:20;;;;;;;4.32;1.27;;;;;;;;;;5049685;28;20136;-78
2022/03/23 03:36:45;;;;;;;1.88;1.67;;;;;;;;;;5048776;28;20104;-78
2022/03/23 03:39:11;;;;;;;3.20;2.97;;;;;;;;;;5053271;28;20021;-78
2022/03/23 03:41:39;;;;;;;1.88;1.33;;;;;;;;;;5053687;28;20041;-76
2022/03/23 03:44:05;;;;;;;0.95;0.95;;;;;;;;;;5058038;28;20107;-79
2022/03/23 03:46:30;;;;;;;0.63;0.63;;;;;;;;;;5052832;28;20108;-78
2022/03/23 03:48:57;;;;;;;4.25;3.45;;;;;;;;;;5052709;28;20086;-77
2022/03/23 03:51:22;;;;;;;2.55;2.28;;;;;;;;;;5053891;28;20021;-79
2022/03/23 03:53:48;;;;;;;1.63;1.45;;;;;;;;;;5053163;28;20165;-79
2022/03/23 03:56:13;;;;;;;1.63;1.52;;;;;;;;;;5053502;28;20481;-78
2022/03/23 03:58:43;;;;;;;0.57;0.57;;;;;;;;;;5053541;28;20033;-78
2022/03/23 04:01:10;;;;;;;1.13;1.10;;;;;;;;;;5053513;28;20033;-78
2022/03/23 04:03:35;;;;;;;3.75;1.88;;;;;;;;;;5053310;28;20040;-77
2022/03/23 04:06:03;;;;;;;5.05;1.20;;;;;;;;;;5053476;28;20025;-78
2022/03/23 04:08:28;;;;;;;2.45;2.20;;;;;;;;;;5052349;28;20104;-78
2022/03/23 04:10:55;;;;;;;2.45;1.80;;;;;;;;;;5053422;28;20120;-78
2022/03/23 04:13:25;;;;;;;2.28;1.73;;;;;;;;;;5047159;28;20369;-76
2022/03/23 04:15:51;;;;;;;3.00;1.25;;;;;;;;;;5052951;28;20112;-79
2022/03/23 04:18:18;;;;;;;1.55;1.45;;;;;;;;;;5053225;28;20231;-78
2022/03/23 04:20:48;;;;;;;3.15;2.40;;;;;;;;;;5053296;28;20028;-79
2022/03/23 04:23:13;;;;;;;0.65;0.55;;;;;;;;;;5047282;28;20021;-79
2022/03/23 04:25:43;;;;;;;2.53;2.33;;;;;;;;;;5053144;28;20033;-77
2022/03/23 04:28:09;;;;;;;2.22;1.50;;;;;;;;;;5051301;28;20454;-78
2022/03/23 04:30:34;;;;;;;1.20;1.10;;;;;;;;;;5050893;28;20055;-74
2022/03/23 04:33:01;;;;;;;1.25;1.17;;;;;;;;;;5052324;28;20036;-74
2022/03/23 04:35:27;;;;;;;1.92;1.67;;;;;;;;;;5064295;28;20021;-74
2022/03/23 04:37:55;;;;;;;1.35;1.25;;;;;;;;;;5051054;28;20484;-73
2022/03/23 04:40:22;;;;;;;2.13;1.88;;;;;;;;;;5030103;28;20029;-76
2022/03/23 04:42:47;;;;;;;0.82;0.82;;;;;;;;;;5050462;28;20064;-75
2022/03/23 04:45:13;;;;;;;1.05;1.05;;;;;;;;;;5055444;28;20052;-74
2022/03/23 04:47:39;;;;;;;2.70;1.70;;;;;;;;;;5051997;28;20094;-74
2022/03/23 04:50:06;;;;;;;0.90;0.88;;;;;;;;;;5053307;28;20029;-73
2022/03/23 04:52:33;;;;;;;2.35;2.17;;;;;;;;;;5051243;28;20361;-73
2022/03/23 04:54:58;;;;;;;11.85;2.10;;;;;;;;;;5051671;28;20028;-72
2022/03/23 04:57:26;;;;;;;1.15;1.05;;;;;;;;;;5050104;28;20128;-73
2022/03/23 04:59:54;;;;;;;0.93;0.88;;;;;;;;;;5051811;28;20047;-73
2022/03/23 05:02:19;;;;;;;2.85;2.30;;;;;;;;;;5049613;28;20036;-72
2022/03/23 05:04:45;;;;;;;0.65;0.65;;;;;;;;;;5050558;28;20036;-73
2022/03/23 05:07:13;;;;;;;2.22;1.83;;;;;;;;;;5053831;28;20055;-73
2022/03/23 05:09:39;;;;;;;1.67;1.58;;;;;;;;;;5055596;28;20503;-75
2022/03/23 05:12:08;;;;;;;1.80;1.63;;;;;;;;;;5056996;28;20093;-75
2022/03/23 05:14:36;;;;;;;0.55;0.55;;;;;;;;;;5058753;28;20048;-74
2022/03/23 05:17:02;;;;;;;1.85;1.70;;;;;;;;;;5038648;28;20021;-74
2022/03/23 05:19:27;;;;;;;1.67;1.58;;;;;;;;;;5056594;28;20408;-74
2022/03/23 05:21:52;;;;;;;2.70;2.50;;;;;;;;;;5039167;28;20025;-74
2022/03/23 05:24:18;;;;;;;1.23;1.10;;;;;;;;;;5056327;28;20024;-73
2022/03/23 05:26:43;;;;;;;1.92;1.63;;;;;;;;;;5055919;28;20132;-73
2022/03/23 05:29:09;;;;;;;0.88;0.88;;;;;;;;;;5054162;28;20484;-73
2022/03/23 05:31:35;;;;;;;3.63;1.73;;;;;;;;;;5051911;28;20063;-73
2022/03/23 05:34:03;;;;;;;1.92;1.80;;;;;;;;;;5049964;28;20033;-73
2022/03/23 05:36:30;;;;;;;2.65;0.95;;;;;;;;;;5055186;28;20126;-74
2022/03/23 05:38:56;;;;;;;1.30;1.23;;;;;;;;;;5055367;28;20029;-73
2022/03/23 05:41:22;;;;;;;2.28;2.00;;;;;;;;;;5049902;28;20036;-73
2022/03/23 05:43:47;;;;;;;4.03;2.58;;;;;;;;;;5055506;28;20029;-74
2022/03/23 05:46:12;;;;;;;1.38;1.27;;;;;;;;;;5055095;28;20041;-73
2022/03/23 05:48:38;;;;;;;0.40;0.40;;;;;;;;;;5051788;28;20131;-74
2022/03/23 05:51:03;;;;;;;2.67;1.50;;;;;;;;;;5051749;28;20079;-73
2022/03/23 05:53:28;;;;;;;1.33;1.23;;;;;;;;;;5055912;28;20453;-74
2022/03/23 05:55:54;;;;;;;1.05;0.93;;;;;;;;;;5054762;28;20040;-74
2022/03/23 05:58:24;;;;;;;1.58;1.15;;;;;;;;;;5055201;28;20033;-74
2022/03/23 06:00:51;;;;;;;3.75;1.58;;;;;;;;;;5054842;28;20040;-73
2022/03/23 06:03:16;;;;;;;1.35;1.00;;;;;;;;;;5053509;28;20032;-73
2022/03/23 06:05:42;;;;;;;31.13;2.67;;;;;;;;;;5054386;28;20456;-73
2022/03/23 06:08:08;;;;;;;2.30;1.85;;;;;;;;;;5055210;28;20374;-73
2022/03/23 06:10:33;;;;;;;3.95;1.40;;;;;;;;;;5053119;28;20316;-74
2022/03/23 06:12:58;;;;;;;3.20;2.83;;;;;;;;;;5054522;28;20469;-74
2022/03/23 06:15:24;;;;;;;0.82;0.82;;;;;;;;;;5055277;28;20044;-73
2022/03/23 06:17:52;;;;;;;2.28;2.03;;;;;;;;;;5055186;28;20037;-73
2022/03/23 06:20:17;;;;;;;1.60;1.50;;;;;;;;;;5053458;28;20327;-73
2022/03/23 06:22:45;;;;;;;1.58;1.48;;;;;;;;;;5054424;28;20029;-72
2022/03/23 06:25:13;;;;;;;1.55;1.45;;;;;;;;;;5054966;28;20028;-73
2022/03/23 06:27:38;;;;;;;0.60;0.60;;;;;;;;;;5053722;28;20029;-73
2022/03/23 06:30:08;;;;;;;2.25;2.03;;;;;;;;;;5050217;28;20028;-72
2022/03/23 06:32:33;;;;;;;3.90;1.90;;;;;;;;;;5048908;28;20020;-73
2022/03/23 06:35:00;;;;;;;2.20;2.00;;;;;;;;;;5054238;28;20051;-73
2022/03/23 06:37:30;;;;;;;2.70;2.47;;;;;;;;;;5054422;28;20017;-73
2022/03/23 06:39:56;;;;;;;3.05;1.95;;;;;;;;;;5053772;28;20039;-73
2022/03/23 06:42:22;;;;;;;1.85;1.75;;;;;;;;;;5054629;28;20021;-73
2022/03/23 06:44:47;;;;;;;1.25;1.15;;;;;;;;;;5054787;28;20025;-73
2022/03/23 06:47:13;;;;;;;1.65;1.40;;;;;;;;;;5054571;28;20559;-73
2022/03/23 06:49:38;;;;;;;1.85;1.60;;;;;;;;;;5054510;28;20029;-73
2022/03/23 06:52:06;;;;;;;2.45;1.17;;;;;;;;;;5052264;28;20113;-73
2022/03/23 06:54:31;;;;;;;19.17;2.72;;;;;;;;;;5054087;28;20373;-73
2022/03/23 06:56:59;;;;;;;5.15;3.58;;;;;;;;;;5053065;28;20025;-73
2022/03/23 06:59:25;;;;;;;1.55;1.45;;;;;;;;;;5055189;28;20033;-73
2022/03/23 07:01:50;;;;;;;1.80;1.70;;;;;;;;;;5044554;28;20024;-73
2022/03/23 07:04:16;;;;;;;2.05;1.48;;;;;;;;;;5053106;28;20115;-73
2022/03/23 07:06:41;;;;;;;4.82;2.08;;;;;;;;;;5052714;28;20043;-73
2022/03/23 07:11:50;;;;;;;2.15;0.82;;;;;;;;;;5054138;28;20090;-73
2022/03/23 07:14:44;;;;;;;3.05;2.15;;;;;;;;;;5052956;28;20021;-73
2022/03/23 07:17:12;;;;;;;2.25;1.98;;;;;;;;;;5052122;28;20119;-73
2022/03/23 07:19:37;;;;;;;4.05;3.03;;;;;;;;;;5050499;28;20052;-73
2022/03/23 07:22:05;;;;;;;2.45;2.25;;;;;;;;;;5052237;28;20450;-73
2022/03/23 07:24:31;;;;;;;3.97;3.25;;;;;;;;;;5053597;28;20362;-73
2022/03/23 07:26:56;;;;;;;2.35;2.03;;;;;;;;;;5052668;28;20044;-74
2022/03/23 07:29:24;;;;;;;3.05;2.78;;;;;;;;;;5052350;28;20116;-74
2022/03/23 07:31:50;;;;;;;2.35;2.15;;;;;;;;;;5053325;28;20028;-74
2022/03/23 07:34:18;;;;;;;0.85;0.85;;;;;;;;;;5050789;28;20028;-75
2022/03/23 07:36:47;;;;;;;3.13;2.35;;;;;;;;;;5049971;28;20028;-75
2022/03/23 07:39:16;;;;;;;1.98;1.63;;;;;;;;;;5053579;28;20021;-75
2022/03/23 07:41:49;;;;;;;3.97;2.42;;;;;;;;;;5054072;28;20086;-75
2022/03/23 07:44:21;;;;;;;2.55;2.28;;;;;;;;;;5052966;28;20031;-72
2022/03/23 07:46:46;;;;;;;2.60;2.40;;;;;;;;;;5054044;28;20028;-73
2022/03/23 07:49:13;;;;;;;2.25;1.52;;;;;;;;;;5052877;28;20054;-74
2022/03/23 07:51:39;;;;;;;3.88;2.47;;;;;;;;;;5053105;28;20390;-75
2022/03/23 07:54:04;;;;;;;3.45;2.15;;;;;;;;;;5053287;28;20067;-74
2022/03/23 07:56:32;;;;;;;2.80;1.90;;;;;;;;;;5053719;28;20071;-74
2022/03/23 07:58:58;;;;;;;4.88;3.08;;;;;;;;;;5053758;28;20033;-74
2022/03/23 08:01:23;;;;;;;2.08;1.67;;;;;;;;;;5053866;28;20025;-74
2022/03/23 08:03:49;;;;;;;2.60;1.92;;;;;;;;;;5054049;28;20053;-74
2022/03/23 08:06:14;;;;;;;2.92;2.45;;;;;;;;;;5053950;28;20029;-74
2022/03/23 08:08:39;;;;;;;2.42;1.92;;;;;;;;;;5051901;28;20112;-74
2022/03/23 08:11:05;;;;;;;4.05;3.15;;;;;;;;;;5053348;28;20438;-74
2022/03/23 08:13:30;;;;;;;4.20;3.20;;;;;;;;;;5053413;28;20098;-74
2022/03/23 08:15:56;;;;;;;6.15;3.60;;;;;;;;;;5053600;28;20482;-72
2022/03/23 08:18:21;;;;;;;6.40;3.17;;;;;;;;;;5052291;28;20024;-74
2022/03/23 08:20:50;;;;;;;3.38;2.33;;;;;;;;;;5053497;28;20332;-74
2022/03/23 08:23:16;;;;;;;4.20;2.53;;;;;;;;;;5053064;28;20390;-74
2022/03/23 08:25:43;;;;;;;2.60;2.20;;;;;;;;;;5053319;28;20074;-74
2022/03/23 08:28:09;;;;;;;7.40;3.88;;;;;;;;;;5052420;28;20041;-73
2022/03/23 08:30:38;;;;;;;3.00;2.50;;;;;;;;;;5053244;28;20029;-74
2022/03/23 08:33:06;;;;;;;4.07;2.30;;;;;;;;;;5052222;28;20111;-74
2022/03/23 08:35:32;;;;;;;6.22;2.88;;;;;;;;;;5049444;28;20029;-74
2022/03/23 08:37:57;;;;;;;4.03;3.25;;;;;;;;;;5053202;28;20033;-73
2022/03/23 08:40:23;;;;;;;3.90;3.15;;;;;;;;;;5051891;28;20024;-73
2022/03/23 08:42:50;;;;;;;6.05;3.15;;;;;;;;;;5055937;28;20037;-73
2022/03/23 08:45:16;;;;;;;4.22;2.35;;;;;;;;;;5057249;28;20028;-74
2022/03/23 08:47:45;;;;;;;4.68;3.00;;;;;;;;;;5055686;28;20032;-74
2022/03/23 08:50:17;;;;;;;3.22;2.92;;;;;;;;;;5057136;28;20025;-74
2022/03/23 08:52:43;;;;;;;6.05;4.65;;;;;;;;;;5056655;28;20029;-74
2022/03/23 08:55:10;;;;;;;4.72;3.45;;;;;;;;;;5055830;28;20029;-74
2022/03/23 08:57:38;;;;;;;3.33;3.03;;;;;;;;;;5055325;28;20013;-74
2022/03/23 09:00:05;;;;;;;4.32;2.95;;;;;;;;;;5053292;28;20032;-75
2022/03/23 09:02:31;;;;;;;4.05;2.88;;;;;;;;;;5055077;28;20024;-75
2022/03/23 09:04:56;;;;;;;14.68;3.20;;;;;;;;;;5050059;28;20032;-75
2022/03/23 09:07:22;;;;;;;4.80;3.20;;;;;;;;;;5052635;28;20112;-75
2022/03/23 09:09:49;;;;;;;13.05;3.13;;;;;;;;;;5056784;28;20024;-74
2022/03/23 09:12:15;;;;;;;5.07;4.35;;;;;;;;;;5056789;28;20040;-74
2022/03/23 09:14:40;;;;;;;3.95;3.38;;;;;;;;;;5056357;28;20025;-74
2022/03/23 09:17:06;;;;;;;2.25;1.95;;;;;;;;;;5054996;28;20077;-74
2022/03/23 09:19:33;;;;;;;10.20;4.78;;;;;;;;;;5056144;28;20025;-74
2022/03/23 09:21:59;;;;;;;5.57;3.53;;;;;;;;;;5056875;28;20087;-74
2022/03/23 09:24:25;;;;;;;5.55;3.47;;;;;;;;;;5055452;28;20401;-74
2022/03/23 09:27:36;;;;;;;5.72;3.67;;;;;;;;;;5052896;28;20071;-75
2022/03/23 09:30:03;;;;;;;6.20;3.67;;;;;;;;;;5057647;28;20094;-75
2022/03/23 09:32:46;;;;;;;6.40;3.70;;;;;;;;;;5055370;28;20033;-75
2022/03/23 09:35:12;;;;;;;6.45;4.03;;;;;;;;;;5053205;28;20020;-76
2022/03/23 09:37:50;;;;;;;4.00;3.55;;;;;;;;;;5050313;28;20029;-75
2022/03/23 09:40:31;;;;;;;5.10;4.00;;;;;;;;;;5048456;28;20017;-75
2022/03/23 09:43:24;;;;;;;3.92;2.53;;;;;;;;;;5048181;28;20052;-75
2022/03/23 09:45:51;;;;;;;4.15;3.03;;;;;;;;;;5046744;28;20496;-75
2022/03/23 09:48:25;;;;;;;13.70;3.72;;;;;;;;;;5045865;28;20043;-76
2022/03/23 09:50:54;;;;;;;4.43;2.80;;;;;;;;;;5055834;28;20086;-75
2022/03/23 09:53:23;;;;;;;4.45;3.63;;;;;;;;;;5060076;28;20059;-76
2022/03/23 09:55:51;;;;;;;4.20;3.53;;;;;;;;;;5055191;28;20474;-74
2022/03/23 09:58:16;;;;;;;4.47;2.33;;;;;;;;;;5052350;28;20040;-75
2022/03/23 10:00:43;;;;;;;3.53;2.78;;;;;;;;;;5054556;28;20020;-75
2022/03/23 10:03:12;;;;;;;5.22;3.22;;;;;;;;;;5054561;28;20029;-74
2022/03/23 10:05:58;;;;;;;6.32;3.22;;;;;;;;;;5052865;28;20056;-74
2022/03/23 10:09:01;;;;;;;4.03;2.75;;;;;;;;;;5053944;28;20366;-75
2022/03/23 10:11:48;;;;;;;5.70;3.25;;;;;;;;;;5052122;28;20040;-74
2022/03/23 10:14:25;;;;;;;7.75;3.80;;;;;;;;;;5054840;28;20029;-75
2022/03/23 10:17:42;;;;;;;5.82;3.85;;;;;;;;;;5049549;28;20028;-74
2022/03/23 10:20:11;;;;;;;7.80;4.35;;;;;;;;;;5051130;28;20040;-76
2022/03/23 10:22:44;;;;;;;7.53;3.72;;;;;;;;;;5053294;28;20454;-73
2022/03/23 10:25:10;;;;;;;7.40;3.35;;;;;;;;;;5047883;28;20044;-73
2022/03/23 10:27:35;;;;;;;3.05;2.30;;;;;;;;;;5057065;28;20365;-73
2022/03/23 10:30:03;;;;;;;4.22;3.65;;;;;;;;;;5055302;28;20040;-76
2022/03/23 10:32:38;;;;;;;4.45;2.78;;;;;;;;;;5056463;28;20036;-76
2022/03/23 10:35:09;;;;;;;5.35;4.53;;;;;;;;;;5043151;28;20066;-75
2022/03/23 10:37:34;;;;;;;6.82;4.15;;;;;;;;;;5060034;28;20025;-75
2022/03/23 10:40:07;;;;;;;5.68;4.03;;;;;;;;;;5038572;28;20036;-75
2022/03/23 10:42:37;;;;;;;6.25;3.95;;;;;;;;;;5055366;28;20086;-75
2022/03/23 10:45:03;;;;;;;4.45;4.05;;;;;;;;;;5055159;28;20021;-75
2022/03/23 10:47:33;;;;;;;4.15;3.25;;;;;;;;;;5055881;28;20032;-76
2022/03/23 10:50:26;;;;;;;3.50;2.30;;;;;;;;;;5055740;28;20040;-76
2022/03/23 10:52:57;;;;;;;5.43;3.50;;;;;;;;;;5054828;28;20532;-77
2022/03/23 10:55:25;;;;;;;9.77;4.78;;;;;;;;;;5056160;28;20099;-76
2022/03/23 10:58:02;;;;;;;8.63;4.35;;;;;;;;;;5054829;28;20029;-77
2022/03/23 11:00:34;;;;;;;5.82;3.25;;;;;;;;;;5055963;28;20461;-76
2022/03/23 11:03:00;;;;;;;;;;;;;;;;;;5055209;28;20033;-76
2022/03/23 11:05:38;;;;;;;7.72;4.55;;;;;;;;;;5050298;28;19921;-75
2022/03/23 11:08:21;;;;;;;4.43;3.58;;;;;;;;;;5053890;28;20028;-75
2022/03/23 11:16:26;;;;;;;4.15;3.03;;;;;;;;;;5055373;28;20028;-74
2022/03/23 11:19:05;;;;;;;6.70;3.50;;;;;;;;;;5054389;28;20357;-75
2022/03/23 11:21:31;;;;;;;6.97;4.75;;;;;;;;;;5053824;28;20032;-75
2022/03/23 11:23:56;;;;;;;3.03;2.72;;;;;;;;;;5054356;28;20029;-75
2022/03/23 11:26:21;;;;;;;5.32;3.45;;;;;;;;;;5053608;28;20025;-76
2022/03/23 11:28:47;;;;;;;3.67;3.22;;;;;;;;;;5049784;28;20527;-76
2022/03/23 11:31:16;;;;;;;5.07;4.32;;;;;;;;;;5051267;28;20059;-76
2022/03/23 11:33:44;;;;;;;5.57;4.20;;;;;;;;;;5044610;28;20021;-76
2022/03/23 11:36:11;;;;;;;6.32;4.28;;;;;;;;;;5048156;28;20354;-74
2022/03/23 11:38:40;;;;;;;6.28;4.32;;;;;;;;;;5048679;28;20595;-74
2022/03/23 11:41:06;;;;;;;8.35;3.30;;;;;;;;;;5047313;28;20450;-74
2022/03/23 11:43:34;;;;;;;3.75;3.28;;;;;;;;;;5044938;28;20028;-74
2022/03/23 11:46:00;;;;;;;6.95;3.95;;;;;;;;;;5052262;28;20035;-75
2022/03/23 11:48:48;;;;;;;4.25;3.85;;;;;;;;;;5052757;28;20032;-75
2022/03/23 11:51:23;;;;;;;8.45;3.60;;;;;;;;;;5049003;28;20021;-75
2022/03/23 11:54:17;;;;;;;6.05;3.72;;;;;;;;;;5051651;28;20431;-75
2022/03/23 11:56:56;;;;;;;8.75;3.38;;;;;;;;;;5044690;28;20040;-76
2022/03/23 11:59:26;;;;;;;6.10;2.83;;;;;;;;;;5047982;28;20017;-75
2022/03/23 12:01:53;;;;;;;4.30;3.05;;;;;;;;;;5068769;28;20037;-76
2022/03/23 12:04:25;;;;;;;6.75;3.35;;;;;;;;;;5045916;28;20060;-75
2022/03/23 12:07:01;;;;;;;3.95;2.65;;;;;;;;;;5050792;28;20036;-75
2022/03/23 12:09:36;;;;;;;4.93;3.28;;;;;;;;;;5047051;28;20036;-75
2022/03/23 12:12:19;;;;;;;7.43;5.25;;;;;;;;;;5048180;28;20058;-76
2022/03/23 12:14:45;;;;;;;4.20;3.47;;;;;;;;;;5042577;28;20442;-76
2022/03/23 12:17:18;;;;;;;7.13;3.40;;;;;;;;;;5055664;28;20036;-75
2022/03/23 12:20:09;;;;;;;4.15;3.65;;;;;;;;;;5051335;28;20051;-76
2022/03/23 12:22:34;;;;;;;4.07;2.60;;;;;;;;;;5035138;28;20427;-75
2022/03/23 12:25:37;;;;;;;3.00;2.50;;;;;;;;;;5066401;28;20048;-75
2022/03/23 12:28:25;;;;;;;3.28;2.40;;;;;;;;;;5052827;28;20038;-75
2022/03/23 12:31:10;;;;;;;3.85;2.50;;;;;;;;;;5054622;28;20036;-74
2022/03/23 12:34:11;;;;;;;5.57;4.05;;;;;;;;;;5044330;28;20018;-75
2022/03/23 12:36:57;;;;;;;5.10;2.92;;;;;;;;;;5055896;28;20040;-75
2022/03/23 12:39:39;;;;;;;4.18;2.78;;;;;;;;;;5057989;28;20029;-76
2022/03/23 12:42:18;;;;;;;4.20;3.22;;;;;;;;;;5058568;28;20051;-75
2022/03/23 12:44:56;;;;;;;4.65;3.30;;;;;;;;;;5057565;28;20029;-76
2022/03/23 12:47:29;;;;;;;5.05;3.78;;;;;;;;;;5056623;28;20037;-77
2022/03/23 12:58:33;;;;;;;3.97;2.92;;;;;;;;;;5053736;28;20474;-74
2022/03/23 13:01:31;;;;;;;8.73;3.50;;;;;;;;;;5052629;28;20065;-75
2022/03/23 13:03:56;;;;;;;3.17;2.65;;;;;;;;;;5032559;28;20508;-77
2022/03/23 13:06:37;;;;;;;5.63;3.65;;;;;;;;;;5056248;28;20052;-75
2022/03/23 13:09:34;;;;;;;8.80;5.25;;;;;;;;;;5055449;28;20041;-79
2022/03/23 13:12:06;;;;;;;3.55;3.08;;;;;;;;;;5054721;28;20090;-74
2022/03/23 13:14:31;;;;;;;4.37;3.20;;;;;;;;;;5029005;28;20037;-75
2022/03/23 13:16:57;;;;;;;8.85;3.53;;;;;;;;;;5056267;28;20074;-74
2022/03/23 13:19:22;;;;;;;1.77;1.67;;;;;;;;;;5051669;28;20052;-76
2022/03/23 13:21:48;;;;;;;6.10;3.17;;;;;;;;;;5054788;28;20028;-76
2022/03/23 13:24:13;;;;;;;4.95;3.55;;;;;;;;;;5049615;28;20033;-76
2022/03/23 13:26:41;;;;;;;5.90;3.92;;;;;;;;;;5054854;28;20059;-77
2022/03/23 13:29:11;;;;;;;5.10;4.35;;;;;;;;;;5054684;28;20025;-75
2022/03/23 13:31:38;;;;;;;6.82;2.85;;;;;;;;;;5056455;28;20040;-76
2022/03/23 13:34:06;;;;;;;9.07;5.20;;;;;;;;;;5049155;28;20020;-76
2022/03/23 13:36:36;;;;;;;7.93;4.00;;;;;;;;;;5054015;28;20094;-76
2022/03/23 13:39:05;;;;;;;4.75;2.95;;;;;;;;;;5032480;28;20017;-75
2022/03/23 13:44:15;;;;;;;3.75;2.95;;;;;;;;;;5056145;28;20048;-76
2022/03/23 13:46:41;;;;;;;5.25;4.10;;;;;;;;;;5055869;28;20119;-76
2022/03/23 13:49:11;;;;;;;5.60;3.92;;;;;;;;;;5038391;28;20118;-75
2022/03/23 13:51:45;;;;;;;3.92;2.85;;;;;;;;;;5054778;28;20563;-76
2022/03/23 13:54:15;;;;;;;5.60;4.05;;;;;;;;;;5055554;28;20135;-76
2022/03/23 13:56:43;;;;;;;4.05;3.25;;;;;;;;;;5055583;28;20017;-75
2022/03/23 13:59:14;;;;;;;4.85;3.45;;;;;;;;;;5055886;28;20021;-76
2022/03/23 14:01:42;;;;;;;4.57;3.80;;;;;;;;;;5054613;28;20472;-76
2022/03/23 14:04:08;;;;;;;3.78;3.45;;;;;;;;;;5054486;28;20025;-76
2022/03/23 14:06:45;;;;;;;5.60;3.67;;;;;;;;;;5052383;28;20027;-76
2022/03/23 14:09:12;;;;;;;7.00;3.28;;;;;;;;;;5050246;28;20640;-75
2022/03/23 14:14:16;;;;;;;4.65;3.22;;;;;;;;;;5049000;28;20025;-76
2022/03/23 14:16:49;;;;;;;6.80;4.57;;;;;;;;;;5053826;28;20044;-75
2022/03/23 14:19:14;;;;;;;6.32;4.68;;;;;;;;;;5054096;28;20573;-76
2022/03/23 14:21:42;;;;;;;6.97;4.03;;;;;;;;;;5054984;28;20036;-75
2022/03/23 14:24:08;;;;;;;5.63;3.47;;;;;;;;;;5054253;28;20029;-76
2022/03/23 14:26:36;;;;;;;4.18;3.30;;;;;;;;;;5054899;28;20028;-77
2022/03/23 14:29:17;;;;;;;19.15;4.65;;;;;;;;;;5054340;28;20060;-75
2022/03/23 14:31:45;;;;;;;7.43;4.43;;;;;;;;;;5053933;28;20370;-75
2022/03/23 14:34:12;;;;;;;2.65;2.05;;;;;;;;;;5054363;28;20032;-74
2022/03/23 14:36:38;;;;;;;7.13;5.20;;;;;;;;;;5052148;28;20037;-75
2022/03/23 14:39:21;;;;;;;6.55;2.83;;;;;;;;;;5050139;28;20040;-75
2022/03/23 14:41:57;;;;;;;7.32;4.15;;;;;;;;;;5054789;28;20048;-75
2022/03/23 14:44:35;;;;;;;7.75;4.38;;;;;;;;;;5054813;28;20040;-76
2022/03/23 14:47:02;;;;;;;3.55;3.25;;;;;;;;;;5054003;28;20051;-75
2022/03/23 14:49:36;;;;;;;6.18;3.63;;;;;;;;;;5054012;28;20090;-75
2022/03/23 14:52:02;;;;;;;3.08;2.72;;;;;;;;;;5054874;28;20025;-75
2022/03/23 14:54:27;;;;;;;4.88;2.65;;;;;;;;;;5053550;28;20434;-75
2022/03/23 14:56:55;;;;;;;5.65;2.13;;;;;;;;;;5054520;28;20025;-75
2022/03/23 14:59:22;;;;;;;4.18;3.72;;;;;;;;;;5054374;28;20114;-76
2022/03/23 15:01:56;;;;;;;5.40;3.47;;;;;;;;;;5053556;28;20055;-75
2022/03/23 15:04:27;;;;;;;8.25;4.13;;;;;;;;;;5052796;28;20047;-75
2022/03/23 15:15:29;;;;;;;9.40;5.25;;;;;;;;;;5044389;28;20106;-77
2022/03/23 15:17:57;;;;;;;4.18;3.50;;;;;;;;;;5053150;28;20036;-75
2022/03/23 15:20:22;;;;;;;5.70;3.72;;;;;;;;;;5054202;28;20031;-75
2022/03/23 15:22:48;;;;;;;6.63;3.85;;;;;;;;;;5054220;28;20442;-76
2022/03/23 15:25:13;;;;;;;3.88;2.85;;;;;;;;;;5053255;28;20428;-75
2022/03/23 15:27:39;;;;;;;4.57;2.45;;;;;;;;;;5054110;28;20102;-75
2022/03/23 15:30:09;;;;;;;5.72;3.50;;;;;;;;;;5036485;28;20035;-75
2022/03/23 15:32:37;;;;;;;3.50;3.20;;;;;;;;;;5053980;28;20028;-76
2022/03/23 15:35:05;;;;;;;7.05;3.33;;;;;;;;;;5052862;28;20060;-75
2022/03/23 15:51:13;;;;;;;;;;;;;;;;;;4972559;28;20054;-75